createdAt,value
2019-06-18T00:00:24.824Z,18.29
2019-06-18T00:01:24.992Z,18.29
2019-06-18T00:02:24.768Z,18.31
2019-06-18T00:03:24.883Z,18.31
2019-06-18T00:04:24.704Z,18.39
2019-06-18T00:05:24.898Z,18.34
2019-06-18T00:06:24.659Z,18.36
2019-06-18T00:07:24.847Z,18.35
2019-06-18T00:08:24.627Z,18.34
2019-06-18T00:09:24.725Z,18.36
2019-06-18T00:10:24.593Z,18.39
2019-06-18T00:11:25.781Z,18.46
2019-06-18T00:12:24.584Z,18.46
2019-06-18T00:13:24.646Z,18.42
2019-06-18T00:14:24.478Z,18.47
2019-06-18T00:15:24.648Z,18.47
2019-06-18T00:16:24.446Z,18.47
2019-06-18T00:17:24.587Z,18.51
2019-06-18T00:18:24.372Z,18.47
2019-06-18T00:19:25.550Z,18.41
2019-06-18T00:20:24.324Z,18.49
2019-06-18T00:21:24.487Z,18.42
2019-06-18T00:22:24.280Z,18.44
2019-06-18T00:23:24.420Z,18.44
2019-06-18T00:24:24.229Z,18.47
2019-06-18T00:25:24.412Z,18.39
2019-06-18T00:26:24.175Z,18.46
2019-06-18T00:27:24.348Z,18.44
2019-06-18T00:28:24.129Z,18.39
2019-06-18T00:29:24.293Z,18.44
2019-06-18T00:30:24.090Z,18.46
2019-06-18T00:31:24.274Z,18.42
2019-06-18T00:32:24.083Z,18.42
2019-06-18T00:33:24.188Z,18.42
2019-06-18T00:34:23.984Z,18.34
2019-06-18T00:35:24.180Z,18.32
2019-06-18T00:36:24.000Z,18.34
2019-06-18T00:37:24.099Z,18.38
2019-06-18T00:38:23.879Z,18.41
2019-06-18T00:39:24.052Z,18.35
2019-06-18T00:40:27.162Z,18.34
2019-06-18T00:41:24.033Z,18.34
2019-06-18T00:42:23.808Z,18.28
2019-06-18T00:43:23.926Z,18.34
2019-06-18T00:44:23.761Z,18.36
2019-06-18T00:45:23.959Z,18.26
2019-06-18T00:46:23.700Z,18.29
2019-06-18T00:47:24.890Z,18.28
2019-06-18T00:48:23.686Z,18.26
2019-06-18T00:49:23.776Z,18.29
2019-06-18T00:50:23.624Z,18.35
2019-06-18T00:51:23.779Z,18.29
2019-06-18T00:52:23.593Z,18.38
2019-06-18T00:53:23.747Z,18.32
2019-06-18T00:54:23.506Z,18.36
2019-06-18T00:55:23.690Z,18.35
2019-06-18T00:56:23.480Z,18.35
2019-06-18T00:57:23.528Z,18.36
2019-06-18T00:58:23.435Z,18.39
2019-06-18T00:59:23.531Z,18.39
2019-06-18T01:00:23.363Z,18.41
2019-06-18T01:01:23.437Z,18.28
2019-06-18T01:02:23.317Z,18.21
2019-06-18T01:03:23.453Z,18.26
2019-06-18T01:04:23.260Z,18.21
2019-06-18T01:05:23.465Z,18.26
2019-06-18T01:06:23.280Z,18.16
2019-06-18T01:07:23.297Z,18.26
2019-06-18T01:08:23.190Z,18.29
2019-06-18T01:09:23.184Z,18.36
2019-06-18T01:10:23.118Z,18.31
2019-06-18T01:11:23.183Z,18.36
2019-06-18T01:12:23.075Z,18.25
2019-06-18T01:13:23.115Z,18.26
2019-06-18T01:14:23.040Z,18.32
2019-06-18T01:15:23.105Z,18.31
2019-06-18T01:16:23.109Z,18.21
2019-06-18T01:17:23.035Z,18.19
2019-06-18T01:18:22.929Z,18.21
2019-06-18T01:19:23.038Z,18.26
2019-06-18T01:20:22.887Z,18.23
2019-06-18T01:21:22.965Z,18.25
2019-06-18T01:22:22.840Z,18.23
2019-06-18T01:23:22.869Z,18.19
2019-06-18T01:24:23.302Z,18.17
2019-06-18T01:25:22.880Z,18.23
2019-06-18T01:26:22.743Z,18.39
2019-06-18T01:27:23.337Z,18.23
2019-06-18T01:28:23.483Z,18.16
2019-06-18T01:29:23.250Z,18.13
2019-06-18T01:30:22.690Z,18.20
2019-06-18T01:31:23.097Z,18.17
2019-06-18T01:32:22.696Z,18.14
2019-06-18T01:33:22.987Z,18.23
2019-06-18T01:34:22.987Z,18.23
2019-06-18T01:35:23.052Z,18.28
2019-06-18T01:36:22.495Z,18.26
2019-06-18T01:37:22.822Z,18.25
2019-06-18T01:38:22.517Z,18.17
2019-06-18T01:39:22.948Z,18.16
2019-06-18T01:40:22.922Z,18.14
2019-06-18T01:41:23.180Z,18.11
2019-06-18T01:42:23.053Z,18.13
2019-06-18T01:43:22.987Z,18.11
2019-06-18T01:44:23.416Z,18.14
2019-06-18T01:45:22.771Z,18.19
2019-06-18T01:46:32.037Z,18.11
2019-06-18T01:47:22.781Z,18.16
2019-06-18T01:48:22.472Z,18.10
2019-06-18T01:49:23.335Z,18.10
2019-06-18T01:50:23.675Z,18.13
2019-06-18T01:51:23.121Z,18.09
2019-06-18T01:52:23.305Z,18.05
2019-06-18T01:53:22.479Z,18.13
2019-06-18T01:54:23.301Z,18.10
2019-06-18T01:55:23.134Z,18.02
2019-06-18T01:56:22.941Z,18.02
2019-06-18T01:57:23.298Z,18.05
2019-06-18T01:58:22.520Z,18.04
2019-06-18T01:59:23.199Z,18.01
2019-06-18T02:00:23.369Z,17.99
2019-06-18T02:01:23.702Z,17.96
2019-06-18T02:02:23.347Z,17.96
2019-06-18T02:03:23.959Z,17.95
2019-06-18T02:04:22.634Z,17.87
2019-06-18T02:05:23.120Z,17.94
2019-06-18T02:06:23.691Z,17.95
2019-06-18T02:07:23.268Z,17.89
2019-06-18T02:08:22.576Z,17.83
2019-06-18T02:09:23.427Z,17.87
2019-06-18T02:10:23.668Z,17.73
2019-06-18T02:11:22.622Z,17.73
2019-06-18T02:12:24.294Z,17.71
2019-06-18T02:13:23.182Z,17.70
2019-06-18T02:14:23.723Z,17.68
2019-06-18T02:15:23.240Z,17.68
2019-06-18T02:16:23.269Z,17.70
2019-06-18T02:17:23.131Z,17.71
2019-06-18T02:18:23.354Z,17.66
2019-06-18T02:19:22.675Z,17.66
2019-06-18T02:20:23.304Z,17.51
2019-06-18T02:21:22.923Z,17.68
2019-06-18T02:22:22.656Z,17.58
2019-06-18T02:23:22.561Z,17.63
2019-06-18T02:24:23.129Z,17.55
2019-06-18T02:25:22.169Z,17.58
2019-06-18T02:26:22.605Z,17.51
2019-06-18T02:27:23.272Z,17.53
2019-06-18T02:28:22.769Z,17.53
2019-06-18T02:29:23.295Z,17.49
2019-06-18T02:30:24.067Z,17.42
2019-06-18T02:31:24.551Z,17.39
2019-06-18T02:32:23.416Z,17.39
2019-06-18T02:33:23.903Z,17.47
2019-06-18T02:34:22.373Z,17.43
2019-06-18T02:35:23.083Z,17.43
2019-06-18T02:36:22.832Z,17.40
2019-06-18T02:37:22.864Z,17.38
2019-06-18T02:38:23.417Z,17.46
2019-06-18T02:39:22.461Z,17.43
2019-06-18T02:40:23.135Z,17.42
2019-06-18T02:41:22.798Z,17.45
2019-06-18T02:42:23.108Z,17.46
2019-06-18T02:43:22.356Z,17.42
2019-06-18T02:44:23.345Z,17.43
2019-06-18T02:45:21.664Z,17.39
2019-06-18T02:46:22.531Z,17.38
2019-06-18T02:47:23.335Z,17.42
2019-06-18T02:48:23.108Z,17.40
2019-06-18T02:49:22.188Z,17.35
2019-06-18T02:50:22.628Z,17.38
2019-06-18T02:51:22.929Z,17.42
2019-06-18T02:52:22.603Z,17.40
2019-06-18T02:53:22.372Z,17.35
2019-06-18T02:54:22.717Z,17.36
2019-06-18T02:55:23.346Z,17.38
2019-06-18T02:56:22.694Z,17.38
2019-06-18T02:57:22.802Z,17.40
2019-06-18T02:58:22.657Z,17.38
2019-06-18T02:59:22.910Z,17.40
2019-06-18T03:00:23.220Z,17.35
2019-06-18T03:01:22.629Z,17.45
2019-06-18T03:02:23.216Z,17.45
2019-06-18T03:03:22.383Z,17.40
2019-06-18T03:04:23.002Z,17.35
2019-06-18T03:05:22.333Z,17.40
2019-06-18T03:06:22.343Z,17.45
2019-06-18T03:07:22.452Z,17.40
2019-06-18T03:08:22.660Z,17.40
2019-06-18T03:09:22.214Z,17.43
2019-06-18T03:10:22.428Z,17.42
2019-06-18T03:11:22.598Z,17.46
2019-06-18T03:12:22.561Z,17.40
2019-06-18T03:13:20.126Z,17.42
2019-06-18T03:14:22.798Z,17.43
2019-06-18T03:15:22.637Z,17.40
2019-06-18T03:16:20.172Z,17.40
2019-06-18T03:17:31.386Z,17.46
2019-06-18T03:18:20.181Z,17.43
2019-06-18T03:19:19.958Z,17.39
2019-06-18T03:20:22.624Z,17.42
2019-06-18T03:21:22.446Z,17.45
2019-06-18T03:22:22.626Z,17.45
2019-06-18T03:23:22.394Z,17.42
2019-06-18T03:24:20.041Z,17.42
2019-06-18T03:25:19.817Z,17.45
2019-06-18T03:26:22.597Z,17.38
2019-06-18T03:27:19.781Z,17.36
2019-06-18T03:28:22.286Z,17.39
2019-06-18T03:29:19.727Z,17.33
2019-06-18T03:30:23.706Z,17.39
2019-06-18T03:31:23.970Z,17.33
2019-06-18T03:32:19.792Z,17.38
2019-06-18T03:33:19.625Z,17.40
2019-06-18T03:34:19.795Z,17.25
2019-06-18T03:35:19.595Z,17.40
2019-06-18T03:36:19.704Z,17.40
2019-06-18T03:37:19.524Z,17.38
2019-06-18T03:38:19.593Z,17.35
2019-06-18T03:39:19.481Z,17.36
2019-06-18T03:40:19.603Z,17.38
2019-06-18T03:41:19.419Z,17.21
2019-06-18T03:42:19.520Z,17.20
2019-06-18T03:43:19.379Z,17.22
2019-06-18T03:44:19.568Z,17.33
2019-06-18T03:45:19.369Z,17.30
2019-06-18T03:46:19.463Z,17.32
2019-06-18T03:47:19.306Z,17.25
2019-06-18T03:48:19.370Z,17.33
2019-06-18T03:49:19.240Z,17.36
2019-06-18T03:50:19.384Z,17.33
2019-06-18T03:51:19.530Z,17.40
2019-06-18T03:52:19.308Z,17.33
2019-06-18T03:53:19.121Z,17.33
2019-06-18T03:54:20.375Z,17.28
2019-06-18T03:55:19.090Z,17.30
2019-06-18T03:56:19.274Z,17.21
2019-06-18T03:57:19.035Z,17.27
2019-06-18T03:58:19.129Z,17.33
2019-06-18T03:59:19.000Z,17.24
2019-06-18T04:00:19.135Z,17.30
2019-06-18T04:01:18.941Z,17.32
2019-06-18T04:02:19.058Z,17.32
2019-06-18T04:03:18.873Z,17.18
2019-06-18T04:04:19.075Z,17.17
2019-06-18T04:05:18.840Z,17.20
2019-06-18T04:06:18.976Z,17.17
2019-06-18T04:07:18.791Z,17.24
2019-06-18T04:08:18.893Z,17.28
2019-06-18T04:09:18.750Z,17.42
2019-06-18T04:10:18.886Z,17.38
2019-06-18T04:11:18.722Z,17.33
2019-06-18T04:12:18.827Z,17.35
2019-06-18T04:13:18.654Z,17.45
2019-06-18T04:14:18.820Z,17.43
2019-06-18T04:15:18.609Z,17.46
2019-06-18T04:16:18.733Z,17.42
2019-06-18T04:17:18.529Z,17.36
2019-06-18T04:18:18.651Z,17.53
2019-06-18T04:19:18.499Z,17.46
2019-06-18T04:20:18.669Z,17.60
2019-06-18T04:21:18.426Z,17.53
2019-06-18T04:22:18.590Z,17.63
2019-06-18T04:23:18.385Z,17.58
2019-06-18T04:24:18.495Z,17.70
2019-06-18T04:25:18.348Z,17.73
2019-06-18T04:26:19.306Z,17.79
2019-06-18T04:27:18.300Z,17.70
2019-06-18T04:28:18.279Z,17.73
2019-06-18T04:29:18.249Z,17.66
2019-06-18T04:30:18.286Z,17.83
2019-06-18T04:31:18.194Z,17.77
2019-06-18T04:32:18.175Z,17.83
2019-06-18T04:33:18.355Z,17.83
2019-06-18T04:34:18.124Z,17.91
2019-06-18T04:35:18.084Z,17.91
2019-06-18T04:36:18.074Z,17.79
2019-06-18T04:37:18.040Z,17.95
2019-06-18T04:38:18.184Z,17.94
2019-06-18T04:39:18.004Z,17.84
2019-06-18T04:40:17.977Z,17.86
2019-06-18T04:41:18.096Z,17.94
2019-06-18T04:42:17.923Z,18.01
2019-06-18T04:43:17.885Z,18.01
2019-06-18T04:44:18.009Z,18.02
2019-06-18T04:45:17.860Z,18.05
2019-06-18T04:46:17.833Z,18.02
2019-06-18T04:47:17.928Z,18.07
2019-06-18T04:48:23.809Z,18.11
2019-06-18T04:49:17.738Z,18.10
2019-06-18T04:50:17.855Z,18.19
2019-06-18T04:51:17.698Z,18.20
2019-06-18T04:52:17.675Z,18.26
2019-06-18T04:53:17.773Z,18.23
2019-06-18T04:54:17.642Z,18.26
2019-06-18T04:55:17.601Z,18.32
2019-06-18T04:56:17.837Z,18.42
2019-06-18T04:57:17.547Z,18.49
2019-06-18T04:58:17.531Z,18.56
2019-06-18T04:59:17.591Z,18.62
2019-06-18T05:00:17.469Z,18.66
2019-06-18T05:01:17.448Z,18.83
2019-06-18T05:02:17.431Z,18.87
2019-06-18T05:03:17.403Z,18.94
2019-06-18T05:04:17.413Z,18.96
2019-06-18T05:05:17.364Z,19.06
2019-06-18T05:06:17.322Z,19.09
2019-06-18T05:07:17.311Z,19.15
2019-06-18T05:08:25.045Z,19.20
2019-06-18T05:09:17.284Z,19.39
2019-06-18T05:10:17.248Z,19.40
2019-06-18T05:11:17.203Z,19.45
2019-06-18T05:12:17.187Z,19.50
2019-06-18T05:13:17.156Z,19.55
2019-06-18T05:14:17.152Z,19.53
2019-06-18T05:15:17.100Z,19.60
2019-06-18T05:16:17.083Z,19.60
2019-06-18T05:17:17.109Z,19.60
2019-06-18T05:18:20.809Z,19.75
2019-06-18T05:19:16.995Z,19.75
2019-06-18T05:20:17.031Z,19.68
2019-06-18T05:21:16.977Z,19.76
2019-06-18T05:22:16.916Z,19.79
2019-06-18T05:23:16.923Z,19.75
2019-06-18T05:24:16.861Z,19.78
2019-06-18T05:25:16.843Z,19.80
2019-06-18T05:26:16.829Z,19.92
2019-06-18T05:27:16.810Z,20.07
2019-06-18T05:28:16.810Z,20.08
2019-06-18T05:29:16.791Z,20.20
2019-06-18T05:30:16.760Z,20.19
2019-06-18T05:31:16.715Z,20.31
2019-06-18T05:32:16.682Z,20.35
2019-06-18T05:33:16.708Z,20.41
2019-06-18T05:34:16.650Z,20.48
2019-06-18T05:35:16.658Z,20.58
2019-06-18T05:36:16.577Z,20.58
2019-06-18T05:37:16.579Z,20.63
2019-06-18T05:38:16.505Z,20.75
2019-06-18T05:39:16.515Z,20.75
2019-06-18T05:40:16.474Z,20.79
2019-06-18T05:41:16.521Z,20.81
2019-06-18T05:42:16.432Z,20.85
2019-06-18T05:43:16.483Z,20.82
2019-06-18T05:44:16.403Z,20.98
2019-06-18T05:45:16.368Z,21.03
2019-06-18T05:46:16.404Z,21.09
2019-06-18T05:47:16.336Z,21.01
2019-06-18T05:48:16.312Z,21.09
2019-06-18T05:49:16.267Z,21.16
2019-06-18T05:50:18.069Z,21.13
2019-06-18T05:51:16.214Z,21.26
2019-06-18T05:52:31.103Z,21.38
2019-06-18T05:53:16.171Z,21.58
2019-06-18T05:54:16.244Z,21.64
2019-06-18T05:55:16.115Z,21.75
2019-06-18T05:56:16.168Z,21.86
2019-06-18T05:57:16.070Z,22.09
2019-06-18T05:58:16.181Z,22.21
2019-06-18T05:59:16.014Z,22.21
2019-06-18T06:00:16.059Z,22.35
2019-06-18T06:01:15.966Z,22.33
2019-06-18T06:02:16.108Z,22.41
2019-06-18T06:03:15.902Z,22.56
2019-06-18T06:04:16.030Z,22.59
2019-06-18T06:05:15.868Z,22.69
2019-06-18T06:06:15.902Z,22.93
2019-06-18T06:07:16.293Z,22.88
2019-06-18T06:08:15.952Z,22.94
2019-06-18T06:09:15.751Z,23.00
2019-06-18T06:10:15.839Z,23.15
2019-06-18T06:11:15.693Z,23.09
2019-06-18T06:12:15.835Z,23.19
2019-06-18T06:13:15.660Z,23.25
2019-06-18T06:14:15.739Z,23.23
2019-06-18T06:15:15.606Z,23.32
2019-06-18T06:16:15.650Z,23.29
2019-06-18T06:17:15.569Z,23.14
2019-06-18T06:18:15.661Z,23.12
2019-06-18T06:19:18.109Z,23.11
2019-06-18T06:20:15.560Z,23.06
2019-06-18T06:21:15.479Z,23.03
2019-06-18T06:22:15.494Z,23.09
2019-06-18T06:23:15.413Z,23.06
2019-06-18T06:24:15.476Z,23.00
2019-06-18T06:25:15.365Z,22.91
2019-06-18T06:26:15.658Z,22.88
2019-06-18T06:27:15.360Z,22.75
2019-06-18T06:28:15.405Z,22.69
2019-06-18T06:29:15.296Z,22.63
2019-06-18T06:30:15.297Z,22.56
2019-06-18T06:31:15.210Z,22.63
2019-06-18T06:32:15.249Z,22.61
2019-06-18T06:33:15.199Z,22.57
2019-06-18T06:34:15.221Z,22.60
2019-06-18T06:35:15.125Z,22.59
2019-06-18T06:36:15.148Z,22.54
2019-06-18T06:37:15.093Z,22.63
2019-06-18T06:38:15.186Z,22.61
2019-06-18T06:39:15.040Z,22.69
2019-06-18T06:40:15.364Z,22.74
2019-06-18T06:41:14.970Z,22.85
2019-06-18T06:42:14.984Z,22.81
2019-06-18T06:43:15.125Z,22.76
2019-06-18T06:44:14.893Z,22.70
2019-06-18T06:45:14.912Z,22.76
2019-06-18T06:46:14.885Z,22.81
2019-06-18T06:47:15.461Z,22.86
2019-06-18T06:48:14.823Z,22.86
2019-06-18T06:49:30.052Z,22.91
2019-06-18T06:50:14.795Z,22.97
2019-06-18T06:51:14.870Z,22.97
2019-06-18T06:52:14.713Z,23.03
2019-06-18T06:53:14.776Z,23.11
2019-06-18T06:54:15.486Z,23.07
2019-06-18T06:55:14.695Z,23.01
2019-06-18T06:56:14.633Z,23.11
2019-06-18T06:57:14.707Z,23.12
2019-06-18T06:58:28.402Z,23.12
2019-06-18T06:59:14.534Z,23.21
2019-06-18T07:00:14.619Z,23.38
2019-06-18T07:01:14.488Z,23.47
2019-06-18T07:02:14.543Z,23.60
2019-06-18T07:03:14.445Z,23.62
2019-06-18T07:04:14.551Z,23.74
2019-06-18T07:05:14.402Z,23.82
2019-06-18T07:06:14.460Z,23.78
2019-06-18T07:07:14.333Z,23.79
2019-06-18T07:08:14.383Z,23.72
2019-06-18T07:09:14.303Z,23.63
2019-06-18T07:10:14.430Z,23.63
2019-06-18T07:11:14.267Z,23.64
2019-06-18T07:12:14.299Z,23.60
2019-06-18T07:13:14.211Z,23.64
2019-06-18T07:14:14.296Z,23.64
2019-06-18T07:15:14.164Z,23.59
2019-06-18T07:16:14.207Z,23.68
2019-06-18T07:17:14.092Z,23.74
2019-06-18T07:18:14.192Z,23.63
2019-06-18T07:19:14.055Z,23.74
2019-06-18T07:20:15.231Z,23.64
2019-06-18T07:21:13.992Z,23.67
2019-06-18T07:22:14.192Z,23.69
2019-06-18T07:23:13.981Z,23.68
2019-06-18T07:24:14.170Z,23.59
2019-06-18T07:25:13.904Z,23.69
2019-06-18T07:26:14.064Z,23.71
2019-06-18T07:27:13.857Z,23.72
2019-06-18T07:28:16.852Z,23.75
2019-06-18T07:29:14.449Z,23.77
2019-06-18T07:30:14.001Z,23.82
2019-06-18T07:31:13.754Z,23.81
2019-06-18T07:32:14.010Z,23.82
2019-06-18T07:33:13.707Z,23.89
2019-06-18T07:34:14.237Z,23.90
2019-06-18T07:35:13.634Z,23.87
2019-06-18T07:36:13.830Z,23.93
2019-06-18T07:37:13.593Z,23.92
2019-06-18T07:38:13.697Z,23.89
2019-06-18T07:39:13.562Z,23.89
2019-06-18T07:40:13.717Z,23.89
2019-06-18T07:41:13.989Z,23.96
2019-06-18T07:42:13.753Z,24.02
2019-06-18T07:43:13.455Z,24.02
2019-06-18T07:44:13.526Z,24.11
2019-06-18T07:45:13.398Z,24.08
2019-06-18T07:46:13.515Z,24.06
2019-06-18T07:47:13.347Z,24.11
2019-06-18T07:48:13.460Z,24.09
2019-06-18T07:49:13.674Z,24.15
2019-06-18T07:50:17.479Z,24.14
2019-06-18T07:51:13.459Z,24.18
2019-06-18T07:52:13.530Z,24.12
2019-06-18T07:53:13.466Z,24.16
2019-06-18T07:54:13.294Z,24.23
2019-06-18T07:55:13.653Z,24.19
2019-06-18T07:56:13.554Z,24.19
2019-06-18T07:57:13.537Z,24.21
2019-06-18T07:58:13.540Z,24.15
2019-06-18T07:59:13.323Z,24.36
2019-06-18T08:00:14.048Z,24.31
2019-06-18T08:01:13.012Z,24.37
2019-06-18T08:02:13.138Z,24.45
2019-06-18T08:03:13.515Z,24.37
2019-06-18T08:04:13.525Z,24.46
2019-06-18T08:05:12.906Z,24.51
2019-06-18T08:06:13.404Z,24.51
2019-06-18T08:07:14.890Z,24.52
2019-06-18T08:08:12.896Z,24.51
2019-06-18T08:09:13.783Z,24.61
2019-06-18T08:10:13.433Z,24.60
2019-06-18T08:11:12.803Z,24.59
2019-06-18T08:12:12.943Z,24.70
2019-06-18T08:13:13.450Z,24.74
2019-06-18T08:14:19.586Z,24.71
2019-06-18T08:15:12.848Z,24.67
2019-06-18T08:16:13.533Z,24.84
2019-06-18T08:17:12.632Z,24.86
2019-06-18T08:18:19.601Z,24.89
2019-06-18T08:19:13.640Z,24.93
2019-06-18T08:21:13.029Z,25.07
2019-06-18T08:22:17.726Z,25.05
2019-06-18T08:23:13.413Z,25.14
2019-06-18T08:24:14.159Z,25.07
2019-06-18T08:25:12.873Z,25.07
2019-06-18T08:26:13.206Z,25.17
2019-06-18T08:27:12.488Z,25.23
2019-06-18T08:28:12.678Z,25.29
2019-06-18T08:29:12.815Z,25.29
2019-06-18T08:30:25.928Z,25.39
2019-06-18T08:31:13.050Z,25.24
2019-06-18T08:32:22.538Z,25.35
2019-06-18T08:33:12.758Z,25.35
2019-06-18T08:34:19.088Z,25.42
2019-06-18T08:35:12.694Z,25.44
2019-06-18T08:36:14.325Z,25.46
2019-06-18T08:37:12.805Z,25.54
2019-06-18T08:39:13.865Z,25.54
2019-06-18T08:40:12.867Z,25.61
2019-06-18T08:41:19.951Z,25.69
2019-06-18T08:42:12.823Z,25.67
2019-06-18T08:43:12.886Z,25.83
2019-06-18T08:44:13.342Z,25.85
2019-06-18T08:45:19.475Z,25.82
2019-06-18T08:46:13.228Z,25.90
2019-06-18T08:48:13.625Z,25.75
2019-06-18T08:49:18.495Z,25.81
2019-06-18T08:50:13.115Z,25.79
2019-06-18T08:52:13.270Z,26.06
2019-06-18T08:54:13.742Z,26.23
2019-06-18T08:55:13.807Z,26.28
2019-06-18T08:56:14.615Z,26.34
2019-06-18T08:57:12.689Z,26.39
2019-06-18T08:58:13.022Z,26.38
2019-06-18T08:59:13.573Z,26.39
2019-06-18T09:00:12.676Z,26.53
2019-06-18T09:01:27.944Z,26.51
2019-06-18T09:02:13.203Z,26.57
2019-06-18T09:03:24.834Z,26.64
2019-06-18T09:04:13.385Z,26.65
2019-06-18T09:05:40.107Z,26.68
2019-06-18T09:06:13.457Z,26.73
2019-06-18T09:46:22.877Z,28.03
2019-06-18T09:47:19.500Z,28.11
2019-06-18T09:48:19.486Z,28.23
2019-06-18T09:49:19.454Z,28.23
2019-06-18T09:50:19.434Z,28.20
2019-06-18T09:51:23.432Z,28.25
2019-06-18T09:52:19.401Z,28.40
2019-06-18T09:53:19.424Z,28.40
2019-06-18T09:54:19.614Z,28.57
2019-06-18T09:55:19.453Z,28.50
2019-06-18T09:56:19.473Z,28.27
2019-06-18T09:57:19.271Z,28.23
2019-06-18T09:58:19.353Z,28.15
2019-06-18T09:59:19.237Z,28.03
2019-06-18T10:00:19.230Z,28.09
2019-06-18T10:01:19.260Z,28.03
2019-06-18T10:02:19.199Z,28.02
2019-06-18T10:03:19.283Z,27.99
2019-06-18T10:04:19.108Z,28.01
2019-06-18T10:05:19.105Z,28.02
2019-06-18T10:06:23.436Z,28.09
2019-06-18T10:07:19.058Z,28.11
2019-06-18T10:08:19.081Z,28.03
2019-06-18T10:09:19.000Z,28.06
2019-06-18T10:10:19.096Z,28.05
2019-06-18T10:11:18.961Z,28.03
2019-06-18T10:12:18.996Z,28.24
2019-06-18T10:13:18.935Z,28.36
2019-06-18T10:14:18.947Z,28.52
2019-06-18T10:15:18.876Z,28.50
2019-06-18T10:16:18.951Z,28.48
2019-06-18T10:17:18.829Z,28.27
2019-06-18T10:18:23.099Z,28.27
2019-06-18T10:19:18.794Z,28.23
2019-06-18T10:20:18.792Z,28.32
2019-06-18T10:21:18.745Z,28.40
2019-06-18T10:22:18.726Z,28.48
2019-06-18T10:23:18.698Z,28.61
2019-06-18T10:24:20.503Z,28.80
2019-06-18T10:25:23.183Z,28.95
2019-06-18T10:26:22.910Z,28.89
2019-06-18T10:27:18.582Z,28.77
2019-06-18T10:28:18.602Z,28.92
2019-06-18T10:29:32.416Z,28.95
2019-06-18T10:30:23.442Z,29.17
2019-06-18T10:31:18.488Z,29.29
2019-06-18T10:32:18.474Z,29.37
2019-06-18T10:33:23.449Z,29.47
2019-06-18T10:34:19.968Z,29.55
2019-06-18T10:35:18.415Z,29.51
2019-06-18T10:36:18.414Z,29.60
2019-06-18T10:37:18.388Z,29.49
2019-06-18T10:38:18.363Z,29.49
2019-06-18T10:39:19.348Z,29.54
2019-06-18T10:40:18.284Z,29.41
2019-06-18T10:41:18.756Z,29.47
2019-06-18T10:42:18.233Z,29.37
2019-06-18T10:43:18.230Z,29.29
2019-06-18T10:44:18.186Z,29.39
2019-06-18T10:45:18.241Z,29.49
2019-06-18T10:46:18.156Z,29.70
2019-06-18T10:47:18.163Z,29.84
2019-06-18T10:48:18.178Z,29.84
2019-06-18T10:49:18.707Z,29.91
2019-06-18T10:50:18.069Z,29.99
2019-06-18T10:51:18.163Z,30.00
2019-06-18T10:52:20.090Z,30.21
2019-06-18T10:53:18.013Z,30.34
2019-06-18T10:54:19.498Z,30.25
2019-06-18T10:55:17.949Z,30.34
2019-06-18T10:56:19.499Z,30.03
2019-06-18T10:57:17.997Z,29.84
2019-06-18T10:58:17.887Z,29.67
2019-06-18T10:59:17.866Z,29.58
2019-06-18T11:00:17.848Z,29.73
2019-06-18T11:01:17.975Z,29.66
2019-06-18T11:02:17.800Z,29.79
2019-06-18T11:03:17.903Z,29.66
2019-06-18T11:04:17.749Z,29.60
2019-06-18T11:05:17.868Z,29.48
2019-06-18T11:06:17.703Z,29.55
2019-06-18T11:07:17.740Z,29.58
2019-06-18T11:08:17.674Z,29.51
2019-06-18T11:09:17.634Z,29.64
2019-06-18T11:10:17.677Z,29.73
2019-06-18T11:11:17.595Z,29.47
2019-06-18T11:12:17.695Z,29.55
2019-06-18T11:13:17.538Z,29.25
2019-06-18T11:14:17.597Z,29.07
2019-06-18T11:15:17.501Z,28.74
2019-06-18T11:16:18.602Z,28.61
2019-06-18T11:17:17.429Z,28.73
2019-06-18T11:18:17.589Z,28.72
2019-06-18T11:19:17.393Z,28.85
2019-06-18T11:20:18.410Z,29.03
2019-06-18T11:21:17.371Z,29.26
2019-06-18T11:22:17.315Z,29.23
2019-06-18T11:23:30.417Z,29.48
2019-06-18T11:24:17.288Z,29.57
2019-06-18T11:25:17.486Z,29.81
2019-06-18T11:26:24.115Z,30.04
2019-06-18T11:27:17.215Z,30.11
2019-06-18T11:28:17.269Z,30.34
2019-06-18T11:29:17.196Z,30.37
2019-06-18T11:30:17.278Z,30.32
2019-06-18T11:31:17.136Z,30.34
2019-06-18T11:32:17.178Z,30.15
2019-06-18T11:33:17.102Z,29.71
2019-06-18T11:34:18.138Z,29.60
2019-06-18T11:35:17.022Z,29.51
2019-06-18T11:36:18.132Z,29.60
2019-06-18T11:37:17.010Z,29.79
2019-06-18T11:38:17.045Z,29.92
2019-06-18T11:39:16.947Z,29.95
2019-06-18T11:40:16.953Z,30.08
2019-06-18T11:41:16.947Z,30.16
2019-06-18T11:42:16.902Z,30.19
2019-06-18T11:43:16.951Z,30.23
2019-06-18T11:44:16.831Z,30.42
2019-06-18T11:45:16.809Z,30.48
2019-06-18T11:46:16.996Z,30.66
2019-06-18T11:47:16.758Z,30.23
2019-06-18T11:48:16.880Z,30.08
2019-06-18T11:49:16.749Z,29.95
2019-06-18T11:50:16.703Z,29.89
2019-06-18T11:51:16.689Z,29.86
2019-06-18T11:52:29.859Z,30.10
2019-06-18T11:53:16.619Z,30.30
2019-06-18T11:54:16.602Z,30.42
2019-06-18T11:55:16.586Z,30.25
2019-06-18T11:56:16.559Z,30.06
2019-06-18T11:57:16.542Z,29.84
2019-06-18T11:58:16.535Z,29.47
2019-06-18T11:59:16.493Z,29.51
2019-06-18T12:00:16.510Z,29.36
2019-06-18T12:01:16.468Z,29.44
2019-06-18T12:02:16.446Z,29.41
2019-06-18T12:03:16.430Z,29.39
2019-06-18T12:04:16.405Z,29.55
2019-06-18T12:05:16.361Z,29.71
2019-06-18T12:06:16.351Z,29.82
2019-06-18T12:07:16.332Z,29.79
2019-06-18T12:08:16.466Z,29.82
2019-06-18T12:09:16.291Z,29.86
2019-06-18T12:10:16.279Z,29.84
2019-06-18T12:11:16.221Z,29.88
2019-06-18T12:12:16.230Z,29.92
2019-06-18T12:13:16.186Z,29.81
2019-06-18T12:14:16.163Z,29.74
2019-06-18T12:15:16.176Z,29.73
2019-06-18T12:16:16.133Z,29.51
2019-06-18T12:17:16.111Z,29.51
2019-06-18T12:18:16.100Z,29.60
2019-06-18T12:20:16.036Z,29.76
2019-06-18T12:21:16.058Z,29.91
2019-06-18T12:22:16.101Z,30.04
2019-06-18T12:23:16.765Z,30.22
2019-06-18T12:24:43.795Z,30.42
2019-06-18T12:25:15.924Z,30.51
2019-06-18T12:26:15.900Z,30.63
2019-06-18T12:27:16.086Z,30.54
2019-06-18T12:28:15.861Z,30.29
2019-06-18T12:29:23.687Z,29.99
2019-06-18T12:30:15.837Z,29.74
2019-06-18T12:31:39.094Z,29.86
2019-06-18T12:32:15.765Z,30.06
2019-06-18T12:33:23.694Z,30.15
2019-06-18T12:34:18.902Z,30.42
2019-06-18T12:35:32.827Z,30.48
2019-06-18T12:36:15.692Z,30.66
2019-06-18T13:11:26.967Z,31.88
2019-06-18T13:12:26.746Z,31.99
2019-06-18T13:14:20.355Z,32.17
2019-06-18T13:15:22.927Z,32.16
2019-06-18T13:16:22.455Z,32.13
2019-06-18T13:17:23.270Z,32.06
2019-06-18T13:18:20.245Z,32.05
2019-06-18T13:19:22.978Z,31.97
2019-06-18T13:20:22.975Z,32.03
2019-06-18T13:21:23.472Z,32.02
2019-06-18T13:22:22.974Z,31.60
2019-06-18T13:23:27.104Z,31.56
2019-06-18T13:24:20.144Z,31.56
2019-06-18T13:25:23.075Z,31.69
2019-06-18T13:26:22.710Z,31.60
2019-06-18T13:27:20.272Z,31.64
2019-06-18T13:28:20.050Z,31.54
2019-06-18T13:29:22.474Z,31.65
2019-06-18T13:30:19.996Z,31.40
2019-06-18T13:31:22.509Z,31.19
2019-06-18T13:32:22.655Z,31.22
2019-06-18T13:33:19.995Z,31.23
2019-06-18T13:34:19.909Z,31.07
2019-06-18T13:35:20.021Z,31.00
2019-06-18T13:36:19.869Z,31.13
2019-06-18T13:37:19.918Z,31.25
2019-06-18T13:38:19.823Z,31.20
2019-06-18T13:39:22.480Z,31.28
2019-06-18T13:40:24.802Z,31.40
2019-06-18T13:41:19.831Z,31.45
2019-06-18T13:42:22.429Z,31.50
2019-06-18T13:43:19.725Z,31.49
2019-06-18T13:44:19.816Z,31.52
2019-06-18T13:45:19.676Z,31.49
2019-06-18T13:46:19.829Z,31.50
2019-06-18T13:47:19.640Z,31.41
2019-06-18T13:48:19.617Z,31.53
2019-06-18T13:49:19.650Z,31.47
2019-06-18T13:50:19.577Z,31.41
2019-06-18T13:51:22.466Z,31.38
2019-06-18T13:52:22.231Z,30.72
2019-06-18T13:53:24.744Z,30.22
2019-06-18T13:54:19.923Z,30.22
2019-06-18T13:55:23.515Z,30.38
2019-06-18T13:56:19.558Z,30.59
2019-06-18T13:57:19.525Z,30.73
2019-06-18T13:58:19.419Z,30.90
2019-06-18T13:59:19.405Z,31.03
2019-06-18T14:00:19.380Z,31.19
2019-06-18T14:01:19.379Z,31.31
2019-06-18T14:02:19.332Z,31.41
2019-06-18T14:03:19.320Z,31.42
2019-06-18T14:04:19.289Z,31.53
2019-06-18T14:05:19.279Z,31.64
2019-06-18T14:06:21.181Z,31.53
2019-06-18T14:07:19.223Z,31.64
2019-06-18T14:08:19.221Z,31.53
2019-06-18T14:09:19.179Z,31.35
2019-06-18T14:10:19.159Z,31.18
2019-06-18T14:11:19.143Z,31.31
2019-06-18T14:12:19.131Z,31.18